Time;durP1;ratioP1;P1;durP2;ratioP2;P2;SDS_P1;SDS_P2;PMS_P1;PMS_P2;Temp;Humidity;BMP_temperature;BMP_pressure;BME280_temperature;BME280_humidity;BME280_pressure;Samples;Min_cycle;Max_cycle;Signal;HPM_P1;HPM_P2
2021/10/07 00:00:12;;;;;;;6.85;4.50;;;;;;;21.70;58.36;101675.95;1763714;79;21028;-50
2021/10/07 00:02:40;;;;;;;8.13;4.35;;;;;;;21.75;58.45;101679.19;1769626;79;21016;-48
2021/10/07 00:05:09;;;;;;;6.62;4.53;;;;;;;21.78;58.54;101682.17;1772436;79;21178;-49
2021/10/07 00:07:35;;;;;;;9.60;5.10;;;;;;;21.80;58.59;101684.09;1761226;79;21100;-48
2021/10/07 00:10:03;;;;;;;7.53;4.70;;;;;;;21.80;58.58;101678.55;1765686;79;21098;-51
2021/10/07 00:12:29;;;;;;;9.28;5.50;;;;;;;21.80;58.53;101677.16;1774486;79;21042;-53
2021/10/07 00:14:55;;;;;;;7.45;5.22;;;;;;;21.81;58.44;101665.52;1792778;79;21682;-49
2021/10/07 00:17:22;;;;;;;7.42;5.17;;;;;;;21.82;58.38;101672.68;1779877;79;21112;-51
2021/10/07 00:19:48;;;;;;;6.87;4.65;;;;;;;21.81;58.31;101666.31;1800060;79;20980;-49
2021/10/07 00:22:14;;;;;;;11.30;5.20;;;;;;;21.81;58.24;101661.37;1774882;79;21237;-48
2021/10/07 00:24:41;;;;;;;7.15;4.97;;;;;;;21.80;58.18;101664.70;1802821;78;20979;-47
2021/10/07 00:27:07;;;;;;;7.10;4.33;;;;;;;21.78;58.13;101672.47;1789459;78;20958;-51
2021/10/07 00:29:43;;;;;;;6.53;5.10;;;;;;;21.76;58.07;101665.05;1793019;78;21166;-48
2021/10/07 00:32:12;;;;;;;9.50;5.10;;;;;;;21.74;58.03;101654.00;1790851;79;21040;-49
2021/10/07 00:39:38;;;;;;;6.90;4.70;;;;;;;21.68;57.94;101664.37;1790428;79;21248;-49
2021/10/07 00:42:05;;;;;;;7.15;5.00;;;;;;;21.67;57.93;101666.05;1791042;77;21554;-50
2021/10/07 00:44:31;;;;;;;7.37;4.95;;;;;;;21.64;57.92;101671.61;1790252;79;21063;-51
2021/10/07 00:47:02;;;;;;;7.55;4.83;;;;;;;21.62;57.90;101667.52;1788881;79;21026;-48
2021/10/07 00:49:29;;;;;;;;;;;;;;;21.60;57.90;101666.42;1801315;79;21009;-47
2021/10/07 00:51:57;;;;;;;6.70;4.50;;;;;;;21.57;57.92;101658.73;1785823;77;20172;-51
2021/10/07 00:54:25;;;;;;;7.58;5.03;;;;;;;21.53;57.90;101668.77;1785193;79;21139;-51
2021/10/07 00:56:52;;;;;;;6.65;4.47;;;;;;;21.51;57.92;101664.12;1783961;77;21532;-50
2021/10/07 00:59:18;;;;;;;12.70;5.05;;;;;;;21.50;57.92;101666.62;1781710;78;21071;-52
2021/10/07 01:01:45;;;;;;;6.40;4.72;;;;;;;21.50;57.92;101673.54;1782257;79;21077;-48
2021/10/07 01:04:11;;;;;;;7.33;4.60;;;;;;;21.48;57.92;101672.18;1791044;78;21014;-48
2021/10/07 01:06:38;;;;;;;5.67;4.22;;;;;;;21.46;57.93;101670.30;1789188;78;21099;-50
2021/10/07 01:09:05;;;;;;;7.78;4.60;;;;;;;21.45;57.91;101665.88;1798857;78;21743;-52
2021/10/07 01:11:32;;;;;;;6.12;4.25;;;;;;;21.43;57.91;101670.31;1801312;78;21019;-51
2021/10/07 01:13:58;;;;;;;7.40;4.75;;;;;;;21.43;57.91;101670.91;1800736;78;21063;-49
2021/10/07 01:16:25;;;;;;;9.48;4.28;;;;;;;21.41;57.91;101663.72;1804966;78;21476;-52
2021/10/07 01:18:52;;;;;;;6.90;4.75;;;;;;;21.39;57.91;101663.18;1797603;77;21449;-51
2021/10/07 01:21:18;;;;;;;7.03;4.12;;;;;;;21.39;57.91;101667.33;1763290;79;21010;-50
2021/10/07 01:23:46;;;;;;;7.87;4.60;;;;;;;21.39;57.92;101663.74;1794999;78;21131;-47
2021/10/07 01:26:15;;;;;;;6.95;4.28;;;;;;;21.36;57.90;101663.80;1793491;79;21059;-48
2021/10/07 01:28:43;;;;;;;6.62;4.00;;;;;;;21.36;57.88;101661.59;1776421;79;21039;-50
2021/10/07 01:31:09;;;;;;;6.25;4.33;;;;;;;21.34;57.89;101667.41;1770916;79;21119;-50
2021/10/07 01:33:36;;;;;;;6.67;3.95;;;;;;;21.34;57.89;101662.47;1794361;77;21078;-52
2021/10/07 01:36:02;;;;;;;5.80;3.90;;;;;;;21.33;57.89;101664.97;1789067;78;22277;-48
2021/10/07 01:38:29;;;;;;;7.05;4.90;;;;;;;21.32;57.88;101668.85;1787675;77;21072;-49
2021/10/07 01:40:55;;;;;;;5.20;3.77;;;;;;;21.30;57.87;101660.84;1773603;79;20974;-48
2021/10/07 01:43:22;;;;;;;5.28;3.83;;;;;;;21.31;57.87;101670.80;1779737;79;20946;-49
2021/10/07 01:45:50;;;;;;;9.03;4.70;;;;;;;21.29;57.87;101668.08;1768524;79;21048;-51
2021/10/07 01:48:16;;;;;;;6.05;3.87;;;;;;;21.28;57.88;101668.64;1783072;79;21576;-48
2021/10/07 01:50:43;;;;;;;6.65;4.30;;;;;;;21.28;57.86;101666.42;1777202;79;20984;-49
2021/10/07 01:53:09;;;;;;;5.53;3.80;;;;;;;21.27;57.84;101662.84;1779179;79;21119;-48
2021/10/07 01:55:35;;;;;;;5.28;4.08;;;;;;;21.27;57.86;101664.78;1781667;79;21028;-48
2021/10/07 01:58:02;;;;;;;6.75;4.22;;;;;;;21.25;57.88;101663.72;1776636;79;21113;-49
2021/10/07 02:00:28;;;;;;;5.95;3.90;;;;;;;21.25;57.84;101657.35;1780874;79;21000;-51
2021/10/07 02:02:54;;;;;;;7.30;4.30;;;;;;;21.24;57.84;101664.00;1777856;79;21044;-48
2021/10/07 02:05:21;;;;;;;7.80;4.17;;;;;;;21.23;57.82;101658.20;1779926;79;21029;-47
2021/10/07 02:07:47;;;;;;;6.72;3.98;;;;;;;21.22;57.81;101655.98;1775630;79;21306;-49
2021/10/07 02:10:17;;;;;;;6.33;4.28;;;;;;;21.23;57.80;101663.73;1777347;79;21038;-48
2021/10/07 02:12:48;;;;;;;7.05;4.30;;;;;;;21.22;57.80;101656.55;1763614;79;21057;-48
2021/10/07 02:15:16;;;;;;;6.08;4.12;;;;;;;21.21;57.77;101663.23;1773396;79;21054;-48
2021/10/07 02:17:42;;;;;;;8.15;3.98;;;;;;;21.20;57.78;101665.17;1771705;79;21060;-51
2021/10/07 02:20:10;;;;;;;6.15;4.40;;;;;;;21.20;57.75;101668.50;1791921;78;22670;-50
2021/10/07 02:22:37;;;;;;;7.10;4.05;;;;;;;21.19;57.75;101661.31;1791279;78;21100;-51
2021/10/07 02:25:04;;;;;;;6.45;3.95;;;;;;;21.19;57.74;101659.93;1788816;78;21185;-51
2021/10/07 02:27:31;;;;;;;6.70;3.95;;;;;;;21.18;57.73;101670.73;1782593;78;21014;-48
2021/10/07 02:29:57;;;;;;;9.05;4.40;;;;;;;21.17;57.73;101662.19;1791986;78;21488;-47
2021/10/07 02:32:23;;;;;;;8.53;4.40;;;;;;;21.17;57.71;101670.49;1794682;78;22042;-50
2021/10/07 02:34:49;;;;;;;8.08;4.00;;;;;;;21.15;57.70;101665.25;1798179;78;21060;-50
2021/10/07 02:37:15;;;;;;;6.33;3.70;;;;;;;21.16;57.70;101657.77;1770587;79;21079;-49
2021/10/07 02:39:42;;;;;;;5.35;3.77;;;;;;;21.15;57.70;101666.63;1773610;79;20987;-48
2021/10/07 02:42:08;;;;;;;5.37;3.77;;;;;;;21.14;57.69;101669.12;1765587;79;21019;-51
2021/10/07 02:44:34;;;;;;;6.90;3.58;;;;;;;21.13;57.69;101673.02;1748574;80;21514;-47
2021/10/07 02:47:01;;;;;;;5.28;3.72;;;;;;;21.14;57.67;101673.84;1778282;79;21082;-49
2021/10/07 02:49:28;;;;;;;6.35;4.25;;;;;;;21.12;57.67;101683.84;1779315;79;21057;-48
2021/10/07 02:51:54;;;;;;;8.20;3.90;;;;;;;21.12;57.66;101694.05;1777068;79;21537;-51
2021/10/07 02:54:21;;;;;;;6.97;3.75;;;;;;;21.12;57.65;101694.91;1778441;79;21518;-51
2021/10/07 02:56:47;;;;;;;5.90;3.58;;;;;;;21.12;57.65;101693.53;1774451;79;21926;-48
2021/10/07 02:59:13;;;;;;;6.50;4.30;;;;;;;21.11;57.64;101687.69;1776071;79;21008;-50
2021/10/07 03:01:39;;;;;;;5.60;3.90;;;;;;;21.11;57.64;101691.84;1778798;79;20998;-48
2021/10/07 03:04:06;;;;;;;6.08;3.60;;;;;;;21.11;57.62;101688.25;1777692;79;21008;-50
2021/10/07 03:06:33;;;;;;;5.58;3.22;;;;;;;21.10;57.61;101683.27;1783286;79;21523;-51
2021/10/07 03:08:59;;;;;;;5.53;3.52;;;;;;;21.12;57.63;101692.67;1772497;79;21184;-49
2021/10/07 03:11:25;;;;;;;5.70;3.22;;;;;;;21.14;57.62;101685.73;1773350;79;21031;-47
2021/10/07 03:13:51;;;;;;;5.95;3.35;;;;;;;21.17;57.57;101687.09;1769436;79;21105;-51
2021/10/07 03:16:17;;;;;;;4.42;3.02;;;;;;;21.19;57.57;101687.05;1765510;80;21537;-47
2021/10/07 03:18:44;;;;;;;4.83;3.35;;;;;;;21.22;57.54;101678.13;1769673;80;21043;-49
2021/10/07 03:21:10;;;;;;;4.10;3.30;;;;;;;21.26;57.50;101672.84;1765198;79;21090;-49
2021/10/07 03:23:36;;;;;;;6.28;2.85;;;;;;;21.28;57.48;101674.17;1766295;79;21039;-49
2021/10/07 03:26:02;;;;;;;4.25;2.85;;;;;;;21.35;57.46;101672.39;1763030;79;21461;-51
2021/10/07 03:28:29;;;;;;;4.62;2.77;;;;;;;21.44;57.47;101669.20;1763885;79;21071;-50
2021/10/07 03:30:55;;;;;;;4.95;2.65;;;;;;;21.51;57.56;101667.44;1762027;80;21027;-48
2021/10/07 03:33:21;;;;;;;3.52;2.52;;;;;;;21.58;57.60;101659.00;1762773;79;20920;-50
2021/10/07 03:35:48;;;;;;;5.35;2.87;;;;;;;21.65;57.64;101651.67;1760943;79;21138;-51
2021/10/07 03:38:14;;;;;;;4.90;3.10;;;;;;;21.70;57.58;101664.05;1761788;79;21052;-49
2021/10/07 03:40:40;;;;;;;6.25;3.08;;;;;;;21.74;57.50;101661.75;1765663;79;21531;-49
2021/10/07 03:43:07;;;;;;;4.60;3.10;;;;;;;21.79;57.39;101670.53;1764959;79;21012;-50
2021/10/07 03:45:33;;;;;;;6.22;2.70;;;;;;;21.82;57.27;101669.35;1764374;79;21159;-49
2021/10/07 03:47:59;;;;;;;6.00;2.72;;;;;;;21.85;57.17;101676.25;1765461;80;21051;-52
2021/10/07 03:50:26;;;;;;;3.80;2.47;;;;;;;21.88;57.07;101670.91;1798637;78;21024;-49
2021/10/07 03:52:52;;;;;;;5.05;2.45;;;;;;;21.91;56.97;101679.73;1800695;78;20999;-49
2021/10/07 03:55:18;;;;;;;2.87;1.95;;;;;;;21.94;56.84;101665.31;1798048;78;21126;-47
2021/10/07 03:57:45;;;;;;;2.52;1.75;;;;;;;21.95;56.76;101666.94;1798991;79;21607;-48
2021/10/07 04:00:12;;;;;;;2.27;1.70;;;;;;;21.95;56.69;101663.61;1802149;77;21057;-50
2021/10/07 04:02:38;;;;;;;2.45;1.67;;;;;;;21.98;56.62;101668.52;1795362;78;21073;-50
2021/10/07 04:05:06;;;;;;;2.62;1.80;;;;;;;21.98;56.53;101668.52;1796971;77;21068;-50
2021/10/07 04:07:32;;;;;;;3.00;1.90;;;;;;;22.00;56.48;101672.39;1798440;77;21067;-51
2021/10/07 04:09:59;;;;;;;2.77;1.37;;;;;;;22.00;56.46;101664.90;1797001;77;21451;-49
2021/10/07 04:12:25;;;;;;;2.37;1.45;;;;;;;22.01;56.41;101653.25;1801457;78;20949;-49
2021/10/07 04:14:52;;;;;;;2.80;1.75;;;;;;;22.02;56.35;101649.36;1796334;79;21080;-49
2021/10/07 04:17:18;;;;;;;3.42;1.77;;;;;;;22.02;56.33;101635.51;1782261;79;20998;-50
2021/10/07 04:19:44;;;;;;;3.55;2.05;;;;;;;22.02;56.28;101629.97;1782607;78;21100;-50
2021/10/07 04:22:11;;;;;;;2.25;1.50;;;;;;;22.03;56.25;101640.72;1787876;79;21108;-51
2021/10/07 04:24:37;;;;;;;3.35;2.15;;;;;;;22.04;56.23;101633.23;1791107;79;21502;-50
2021/10/07 04:27:03;;;;;;;2.60;1.77;;;;;;;22.04;56.20;101636.00;1789367;79;21567;-52
2021/10/07 04:29:30;;;;;;;3.65;2.10;;;;;;;22.05;56.18;101642.64;1786972;79;21029;-53
2021/10/07 04:31:56;;;;;;;3.85;2.00;;;;;;;22.05;56.17;101646.80;1798214;79;21408;-51
2021/10/07 04:34:23;;;;;;;3.95;2.22;;;;;;;22.06;56.16;101644.28;1785672;79;21980;-50
2021/10/07 04:36:49;;;;;;;4.03;2.12;;;;;;;22.06;56.15;101640.13;1781839;79;21103;-49
2021/10/07 04:39:15;;;;;;;3.05;2.05;;;;;;;22.07;56.15;101639.53;1780791;79;20979;-47
2021/10/07 04:41:42;;;;;;;6.00;2.55;;;;;;;22.06;56.12;101638.75;1795137;79;21465;-50
2021/10/07 04:44:08;;;;;;;2.98;1.87;;;;;;;22.07;56.13;101638.98;1796958;79;21005;-51
2021/10/07 04:46:34;;;;;;;6.25;2.00;;;;;;;22.08;56.10;101642.57;1792532;78;21141;-49
2021/10/07 04:49:00;;;;;;;2.60;1.60;;;;;;;22.08;56.08;101651.71;1788667;77;21031;-49
2021/10/07 04:51:27;;;;;;;4.17;1.35;;;;;;;22.09;56.08;101661.67;1787584;77;21080;-48
2021/10/07 04:53:53;;;;;;;5.08;1.85;;;;;;;22.09;56.07;101657.52;1793557;77;21103;-47
2021/10/07 04:56:19;;;;;;;4.35;2.00;;;;;;;22.10;56.04;101653.63;1792216;77;21499;-52
2021/10/07 04:58:46;;;;;;;6.25;1.80;;;;;;;22.11;55.99;101653.03;1789911;77;22018;-53
2021/10/07 05:01:16;;;;;;;10.90;2.85;;;;;;;22.13;55.98;101654.95;1792128;77;21062;-51
2021/10/07 05:03:40;;;;;;;6.05;2.47;;;;;;;22.13;55.95;101657.16;1791840;77;21116;-51
2021/10/07 05:06:07;;;;;;;5.15;2.12;;;;;;;22.14;55.92;101653.27;1789600;78;21075;-51
2021/10/07 05:08:33;;;;;;;10.08;2.35;;;;;;;22.16;55.87;101663.47;1755909;79;21031;-52
2021/10/07 05:10:59;;;;;;;5.30;2.20;;;;;;;22.17;55.82;101670.66;1785921;79;21092;-52
2021/10/07 05:13:26;;;;;;;6.35;2.30;;;;;;;22.18;55.81;101673.70;1792046;77;20991;-52
2021/10/07 05:15:52;;;;;;;7.03;2.25;;;;;;;22.20;55.79;101677.52;1795597;79;21021;-52
2021/10/07 05:18:19;;;;;;;6.10;2.45;;;;;;;22.20;55.78;101677.52;1765728;78;21057;-52
2021/10/07 05:20:46;;;;;;;7.28;3.00;;;;;;;22.20;55.74;101683.89;1778096;78;21079;-52
2021/10/07 05:23:13;;;;;;;8.80;2.42;;;;;;;22.22;55.75;101689.14;1780249;78;21128;-52
2021/10/07 05:25:39;;;;;;;8.10;2.40;;;;;;;22.22;55.75;101688.58;1775906;78;21443;-51
2021/10/07 05:28:05;;;;;;;7.47;2.52;;;;;;;22.24;55.75;101693.80;1767705;78;21070;-50
2021/10/07 05:30:32;;;;;;;11.20;3.95;;;;;;;22.23;55.76;101682.48;1771002;78;21061;-50
2021/10/07 05:32:58;;;;;;;12.35;5.15;;;;;;;22.23;55.74;101682.48;1750316;80;21104;-52
2021/10/07 05:35:24;;;;;;;13.28;3.40;;;;;;;22.24;55.74;101697.39;1772785;79;21062;-51
2021/10/07 05:37:51;;;;;;;14.63;4.20;;;;;;;22.24;55.75;101694.63;1771339;79;21085;-50
2021/10/07 05:40:17;;;;;;;15.95;4.97;;;;;;;22.25;55.74;101694.89;1765657;79;21033;-50
2021/10/07 05:42:43;;;;;;;45.55;13.43;;;;;;;22.26;55.74;101697.09;1769276;79;21032;-51
2021/10/07 05:45:10;;;;;;;12.45;4.05;;;;;;;;;;1775389;79;21042;-48
2021/10/07 05:47:40;;;;;;;46.58;11.80;;;;;;;;;;1768838;79;22105;-48
2021/10/07 05:50:08;;;;;;;34.63;8.60;;;;;;;22.29;55.74;101690.93;1790580;77;21451;-49
2021/10/07 05:52:34;;;;;;;18.15;5.10;;;;;;;22.29;55.73;101689.55;1797994;79;21070;-49
2021/10/07 05:55:00;;;;;;;18.60;5.03;;;;;;;22.29;55.73;101688.16;1789832;77;21046;-50
2021/10/07 05:57:26;;;;;;;21.07;5.15;;;;;;;22.29;55.74;101690.93;1791355;77;21084;-50
2021/10/07 05:59:52;;;;;;;25.35;6.28;;;;;;;22.29;55.77;101697.86;1795325;79;21147;-50
2021/10/07 06:02:19;;;;;;;25.57;6.08;;;;;;;22.28;55.76;101697.59;1792179;77;21504;-49
2021/10/07 06:04:45;;;;;;;28.12;6.72;;;;;;;22.29;55.79;101697.86;1790043;77;21042;-50
2021/10/07 06:07:11;;;;;;;26.75;6.47;;;;;;;;;;1795539;77;21064;-49
2021/10/07 06:09:38;;;;;;;27.73;6.25;;;;;;;22.27;55.83;101695.98;1796037;77;20970;-49
2021/10/07 06:12:05;;;;;;;22.62;6.80;;;;;;;22.27;55.87;101687.66;1793859;78;21101;-51
2021/10/07 06:14:31;;;;;;;23.42;6.42;;;;;;;22.26;55.88;101688.22;1784760;79;21117;-48
2021/10/07 06:16:58;;;;;;;23.12;6.25;;;;;;;22.25;55.93;101682.41;1787225;78;21677;-49
2021/10/07 06:19:25;;;;;;;21.35;7.17;;;;;;;22.26;55.95;101690.17;1784077;78;20995;-50
2021/10/07 06:21:52;;;;;;;25.43;6.25;;;;;;;22.24;55.97;101682.15;1786424;78;21508;-48
2021/10/07 06:24:19;;;;;;;23.15;6.67;;;;;;;22.23;56.01;101684.69;1787160;78;21828;-51
2021/10/07 06:26:45;;;;;;;19.90;6.28;;;;;;;22.23;56.05;101696.34;1785346;78;21069;-51
2021/10/07 06:29:12;;;;;;;19.65;5.87;;;;;;;22.22;56.07;101696.07;1785596;78;21058;-51
2021/10/07 06:31:38;;;;;;;19.50;5.60;;;;;;;22.22;56.08;101700.23;1783010;78;21149;-50
2021/10/07 06:34:05;;;;;;;19.70;6.08;;;;;;;22.21;56.11;101698.58;1785578;78;21051;-49
2021/10/07 06:36:31;;;;;;;20.25;5.90;;;;;;;22.19;56.12;101687.78;1784448;78;21469;-48
2021/10/07 06:38:57;;;;;;;19.45;6.12;;;;;;;22.18;56.14;101695.87;1783065;78;21093;-51
2021/10/07 06:41:24;;;;;;;18.30;5.95;;;;;;;22.18;56.14;101697.25;1786464;78;21027;-51
2021/10/07 06:43:50;;;;;;;17.02;6.15;;;;;;;22.18;56.16;101698.64;1781734;79;21117;-48
2021/10/07 06:46:16;;;;;;;22.27;5.72;;;;;;;22.17;56.17;101696.98;1786008;78;21579;-50
2021/10/07 06:48:43;;;;;;;16.37;5.85;;;;;;;22.17;56.18;101697.55;1788427;78;21887;-51
2021/10/07 06:51:09;;;;;;;19.77;5.87;;;;;;;22.15;56.19;101699.23;1789562;78;21165;-50
2021/10/07 06:53:39;;;;;;;18.25;5.45;;;;;;;22.16;56.19;101698.67;1783123;78;21038;-51
2021/10/07 06:56:06;;;;;;;17.40;5.27;;;;;;;22.17;56.20;101704.48;1786278;79;21144;-51
2021/10/07 06:58:32;;;;;;;16.20;4.92;;;;;;;22.15;56.19;101693.69;1786699;78;21030;-50
2021/10/07 07:00:59;;;;;;;20.75;5.80;;;;;;;22.15;56.18;101693.69;1785918;78;21984;-49
2021/10/07 07:03:25;;;;;;;16.32;5.62;;;;;;;22.15;56.18;101703.39;1787645;78;21073;-52
2021/10/07 07:05:51;;;;;;;15.80;5.37;;;;;;;22.15;56.17;101709.52;1781514;78;21019;-50
2021/10/07 07:08:17;;;;;;;16.75;5.12;;;;;;;22.15;56.17;101710.91;1782659;78;21528;-48
2021/10/07 07:10:43;;;;;;;15.68;5.03;;;;;;;22.14;56.17;101713.42;1784097;78;21127;-50
2021/10/07 07:13:10;;;;;;;12.70;4.30;;;;;;;22.14;56.13;101719.78;1786185;79;21126;-49
2021/10/07 07:15:36;;;;;;;15.60;5.12;;;;;;;22.12;56.13;101730.34;1786769;78;21132;-51
2021/10/07 07:18:02;;;;;;;12.50;5.25;;;;;;;22.12;56.12;101717.05;1785127;78;21104;-50
2021/10/07 07:20:28;;;;;;;13.55;5.00;;;;;;;22.11;56.12;101723.14;1786617;78;21533;-51
2021/10/07 07:22:55;;;;;;;13.80;4.92;;;;;;;22.12;56.11;101722.59;1785774;78;21039;-52
2021/10/07 07:25:22;;;;;;;15.38;4.80;;;;;;;22.11;56.08;101720.94;1787388;78;21148;-52
2021/10/07 07:27:48;;;;;;;15.10;4.85;;;;;;;22.09;56.09;101719.88;1786934;78;21069;-51
2021/10/07 07:30:14;;;;;;;13.93;5.33;;;;;;;22.08;56.09;101716.84;1786784;78;21709;-51
2021/10/07 07:32:40;;;;;;;12.73;4.72;;;;;;;22.08;56.07;101716.02;1786881;78;21116;-48
2021/10/07 07:35:08;;;;;;;11.28;4.80;;;;;;;22.07;56.05;101710.20;1783965;78;21035;-49
2021/10/07 07:37:34;;;;;;;15.80;4.87;;;;;;;22.06;56.04;101708.02;1787832;78;21121;-51
2021/10/07 07:40:01;;;;;;;15.35;4.47;;;;;;;22.05;56.03;101703.60;1782329;78;21670;-50
2021/10/07 07:42:27;;;;;;;11.12;5.17;;;;;;;22.06;56.02;101704.42;1784892;79;21152;-51
2021/10/07 07:44:53;;;;;;;11.73;4.50;;;;;;;22.05;56.02;101693.91;1787921;79;20939;-51
2021/10/07 07:47:21;;;;;;;11.05;3.85;;;;;;;22.05;55.98;101691.69;1780974;78;21043;-52
2021/10/07 07:49:48;;;;;;;11.95;4.37;;;;;;;22.04;55.97;101700.56;1784119;78;21155;-50
2021/10/07 07:52:14;;;;;;;14.18;4.50;;;;;;;22.05;55.96;101709.70;1786043;78;21506;-52
2021/10/07 07:54:41;;;;;;;12.33;4.45;;;;;;;22.04;55.93;101704.72;1786773;78;21049;-50
2021/10/07 07:57:07;;;;;;;11.90;4.00;;;;;;;22.04;55.95;101708.05;1784643;78;21067;-49
2021/10/07 07:59:34;;;;;;;10.43;4.08;;;;;;;22.05;55.91;101706.38;1785570;78;21132;-51
2021/10/07 08:02:00;;;;;;;11.78;4.78;;;;;;;22.05;55.90;101701.39;1785103;78;21067;-51
2021/10/07 08:04:26;;;;;;;9.68;3.85;;;;;;;22.04;55.88;101697.80;1785747;78;20986;-49
2021/10/07 08:06:53;;;;;;;14.33;4.35;;;;;;;22.03;55.87;101690.60;1786619;78;21601;-50
2021/10/07 08:09:19;;;;;;;12.78;3.95;;;;;;;22.03;55.85;101693.94;1785002;78;21463;-51
2021/10/07 08:11:45;;;;;;;9.25;4.45;;;;;;;22.02;55.84;101701.45;1786533;79;21074;-51
2021/10/07 08:14:12;;;;;;;9.78;4.20;;;;;;;22.02;55.83;101701.45;1787742;77;21093;-52
2021/10/07 08:16:38;;;;;;;10.70;4.10;;;;;;;22.02;55.81;101703.39;1787021;78;21544;-50
2021/10/07 08:19:04;;;;;;;11.38;4.12;;;;;;;22.01;55.81;101701.19;1786970;79;21065;-51
2021/10/07 08:21:31;;;;;;;8.33;3.50;;;;;;;22.01;55.80;101695.64;1785584;78;20992;-51
2021/10/07 08:23:57;;;;;;;7.72;3.70;;;;;;;22.02;55.79;101710.33;1786421;78;21010;-50
2021/10/07 08:26:24;;;;;;;8.65;4.05;;;;;;;22.01;55.77;101711.45;1784348;78;21542;-51
2021/10/07 08:28:50;;;;;;;10.40;3.70;;;;;;;22.01;55.78;101712.83;1788718;78;21074;-51
2021/10/07 08:31:17;;;;;;;9.18;4.05;;;;;;;21.99;55.74;101703.98;1786575;78;21122;-52
2021/10/07 08:33:43;;;;;;;10.53;4.25;;;;;;;21.98;55.74;101701.77;1786919;78;21543;-50
2021/10/07 08:36:09;;;;;;;11.73;4.15;;;;;;;21.99;55.72;101706.20;1788381;78;21050;-49
2021/10/07 08:38:36;;;;;;;10.38;3.98;;;;;;;21.98;55.72;101707.91;1785915;78;21710;-48
2021/10/07 08:41:02;;;;;;;7.30;3.50;;;;;;;21.98;55.70;101728.69;1787007;78;21113;-48
2021/10/07 08:43:29;;;;;;;9.78;4.10;;;;;;;21.96;55.69;101721.23;1784963;78;21537;-48
2021/10/07 08:45:55;;;;;;;10.95;3.83;;;;;;;21.96;55.69;101723.44;1784403;78;21030;-48
2021/10/07 08:48:21;;;;;;;8.00;3.75;;;;;;;21.96;55.67;101721.23;1787470;78;21216;-49
2021/10/07 08:50:47;;;;;;;9.43;3.45;;;;;;;21.95;55.65;101717.63;1787179;78;21050;-51
2021/10/07 08:53:14;;;;;;;11.18;4.17;;;;;;;21.96;55.66;101721.23;1762678;79;21766;-50
2021/10/07 08:55:40;;;;;;;8.45;3.85;;;;;;;21.95;55.64;101722.34;1784989;78;21109;-51
2021/10/07 08:58:06;;;;;;;7.97;3.60;;;;;;;21.95;55.63;101719.58;1790070;78;20995;-51
2021/10/07 09:00:33;;;;;;;13.08;4.03;;;;;;;21.95;55.61;101716.81;1785960;78;21121;-49
2021/10/07 09:03:10;;;;;;;8.78;3.27;;;;;;;21.94;55.60;101711.83;1788705;78;21515;-49
2021/10/07 09:05:39;;;;;;;7.15;3.45;;;;;;;21.94;55.57;101720.73;1775661;78;21061;-51
2021/10/07 09:08:05;;;;;;;9.70;3.50;;;;;;;21.94;55.57;101713.80;1785117;78;21535;-49
2021/10/07 09:10:47;;;;;;;10.88;3.50;;;;;;;21.94;55.56;101727.66;1788486;78;21066;-50
2021/10/07 09:13:18;;;;;;;9.88;3.90;;;;;;;21.93;55.55;101724.06;1782210;79;21167;-49
2021/10/07 09:15:48;;;;;;;6.50;3.22;;;;;;;21.93;55.54;101730.98;1787242;78;21877;-50
2021/10/07 09:18:15;;;;;;;7.17;3.52;;;;;;;21.94;55.52;101752.59;1786151;78;21101;-50
2021/10/07 09:20:43;;;;;;;9.45;3.45;;;;;;;21.92;55.50;101747.34;1782782;79;21398;-51
2021/10/07 09:23:29;;;;;;;7.90;3.50;;;;;;;21.92;55.49;101748.73;1785136;78;21469;-51
2021/10/07 09:26:13;;;;;;;7.12;3.30;;;;;;;21.91;55.47;101740.12;1782606;78;21117;-50
2021/10/07 09:28:56;;;;;;;6.50;3.42;;;;;;;21.91;55.47;101748.43;1786351;78;20978;-51
2021/10/07 09:31:28;;;;;;;7.40;3.42;;;;;;;21.91;55.45;101746.22;1785011;78;21044;-48
2021/10/07 09:33:59;;;;;;;5.92;3.50;;;;;;;21.90;55.42;101747.37;1787238;79;21458;-49
2021/10/07 09:36:26;;;;;;;6.72;3.50;;;;;;;21.89;55.41;101749.31;1785975;79;21061;-50
2021/10/07 09:38:53;;;;;;;8.60;3.58;;;;;;;21.88;55.41;101741.56;1786798;78;21002;-52
2021/10/07 09:41:30;;;;;;;8.35;3.52;;;;;;;21.87;55.40;101739.91;1787773;78;21154;-49
2021/10/07 09:44:04;;;;;;;6.15;3.33;;;;;;;21.87;55.39;101730.22;1785642;78;21105;-49
2021/10/07 09:46:51;;;;;;;9.68;3.67;;;;;;;21.87;55.39;101735.75;1789476;78;21047;-51
2021/10/07 09:49:34;;;;;;;6.50;3.27;;;;;;;21.87;55.34;101741.85;1784090;80;21081;-51
2021/10/07 09:52:05;;;;;;;6.40;3.72;;;;;;;21.86;55.35;101740.20;1779652;78;21051;-47
2021/10/07 09:54:37;;;;;;;5.60;3.45;;;;;;;21.86;55.32;101738.81;1785369;78;21268;-50
2021/10/07 09:57:04;;;;;;;7.55;3.58;;;;;;;21.85;55.30;101731.06;1786854;78;20992;-48
2021/10/07 09:59:32;;;;;;;8.25;3.52;;;;;;;21.85;55.30;101721.96;1789295;78;21081;-50
2021/10/07 10:01:59;;;;;;;6.95;3.33;;;;;;;21.84;55.28;101723.91;1784347;78;21461;-50
2021/10/07 10:04:27;;;;;;;8.80;4.17;;;;;;;21.83;55.27;101718.09;1781529;79;35924;-48
2021/10/07 10:06:54;;;;;;;8.65;3.67;;;;;;;21.83;55.24;101718.09;1786836;79;21337;-47
2021/10/07 10:09:24;;;;;;;6.42;3.30;;;;;;;21.83;55.24;101738.87;1784485;78;21058;-51
2021/10/07 10:11:51;;;;;;;8.30;3.75;;;;;;;21.83;55.22;101721.42;1785206;78;21709;-51
2021/10/07 10:14:19;;;;;;;7.03;3.35;;;;;;;21.83;55.22;101722.81;1788705;78;20990;-49
2021/10/07 10:16:45;;;;;;;9.55;3.50;;;;;;;21.83;55.18;101725.02;1791814;78;21528;-51
2021/10/07 10:19:12;;;;;;;6.67;3.47;;;;;;;21.83;55.18;101721.42;1790006;79;21785;-51
2021/10/07 10:21:40;;;;;;;5.62;3.60;;;;;;;21.82;55.17;101727.52;1794511;79;21019;-49
2021/10/07 10:24:08;;;;;;;7.67;3.42;;;;;;;21.82;55.14;101730.86;1789311;78;21038;-47
2021/10/07 10:26:39;;;;;;;6.15;3.35;;;;;;;21.81;55.13;101725.08;1785841;78;21491;-49
2021/10/07 10:29:19;;;;;;;;;;;;;;;21.81;55.11;101736.95;1795720;78;21054;-50
2021/10/07 10:31:47;;;;;;;5.67;3.02;;;;;;;21.80;55.11;101737.28;1794309;78;21320;-51
2021/10/07 10:34:16;;;;;;;7.17;3.50;;;;;;;21.78;55.13;101732.03;1746509;79;21023;-49
2021/10/07 10:36:55;;;;;;;7.50;3.37;;;;;;;21.77;55.12;101728.16;1798053;79;21042;-49
2021/10/07 10:39:28;;;;;;;6.00;3.02;;;;;;;21.76;55.12;101725.16;1790408;78;21065;-50
2021/10/07 10:41:57;;;;;;;8.83;3.30;;;;;;;21.75;55.10;101729.05;1795452;78;21090;-50
2021/10/07 10:44:31;;;;;;;5.75;3.45;;;;;;;21.74;55.09;101730.99;1794923;79;21987;-49
2021/10/07 10:47:12;;;;;;;6.97;2.90;;;;;;;21.74;55.09;101717.14;1789704;79;21059;-49
2021/10/07 10:49:50;;;;;;;5.50;3.25;;;;;;;21.75;55.08;101724.89;1795533;79;20967;-47
2021/10/07 10:52:25;;;;;;;6.25;3.17;;;;;;;21.74;55.07;101727.40;1789203;79;21001;-49
2021/10/07 10:54:59;;;;;;;5.08;2.98;;;;;;;21.74;55.06;101721.30;1793515;79;21124;-51
2021/10/07 10:57:33;;;;;;;8.08;3.42;;;;;;;21.74;55.03;101723.24;1791556;78;21058;-48
2021/10/07 11:00:22;;;;;;;5.10;2.77;;;;;;;21.74;55.02;101722.69;1796616;79;21405;-48
2021/10/07 11:02:56;;;;;;;5.20;3.45;;;;;;;21.74;55.02;101732.94;1790697;78;21137;-48
2021/10/07 11:05:26;;;;;;;5.70;3.30;;;;;;;21.73;55.01;101736.83;1767003;79;21093;-51
2021/10/07 11:08:19;;;;;;;5.08;3.20;;;;;;;21.72;54.98;101733.27;1792612;78;21089;-53
2021/10/07 11:10:53;;;;;;;5.92;3.30;;;;;;;21.72;54.97;101726.89;1790610;78;21142;-51
2021/10/07 11:13:26;;;;;;;7.72;3.45;;;;;;;21.70;54.97;101721.64;1792389;79;21397;-49
2021/10/07 11:15:58;;;;;;;5.05;2.90;;;;;;;21.70;54.96;101727.19;1786965;79;21140;-53
2021/10/07 11:18:32;;;;;;;6.45;3.30;;;;;;;21.70;54.96;101728.57;1788265;79;21047;-53
2021/10/07 11:21:08;;;;;;;8.38;3.15;;;;;;;21.70;54.95;101731.34;1782623;79;21122;-50
2021/10/07 11:23:36;;;;;;;4.75;3.00;;;;;;;21.70;54.93;101731.34;1794000;79;21087;-53
2021/10/07 11:26:03;;;;;;;5.55;3.00;;;;;;;21.70;54.93;101727.75;1787604;79;21074;-51
2021/10/07 11:28:36;;;;;;;5.60;2.70;;;;;;;21.70;54.91;101740.20;1787501;79;21055;-50
2021/10/07 11:31:06;;;;;;;5.58;3.45;;;;;;;21.69;54.90;101729.69;1789820;79;21050;-49